createdAt,value
2017-08-01T00:01:10.233Z,18.70
2017-08-01T00:03:38.602Z,18.80
2017-08-01T00:06:07.060Z,18.70
2017-08-01T00:08:34.656Z,18.70
2017-08-01T00:11:02.331Z,18.70
2017-08-01T00:13:29.987Z,18.70
2017-08-01T00:15:57.618Z,18.60
2017-08-01T00:18:25.229Z,18.50
2017-08-01T00:20:52.806Z,18.30
2017-08-01T00:23:20.397Z,18.10
2017-08-01T00:25:48.000Z,18.00
2017-08-01T00:28:15.786Z,17.90
2017-08-01T00:30:43.422Z,17.70
2017-08-01T00:33:11.042Z,17.50
2017-08-01T00:35:38.635Z,17.40
2017-08-01T00:38:06.356Z,17.50
2017-08-01T00:40:33.960Z,17.50
2017-08-01T00:43:01.645Z,17.60
2017-08-01T00:45:29.338Z,17.70
2017-08-01T00:47:57.489Z,17.60
2017-08-01T00:50:25.066Z,17.60
2017-08-01T00:52:52.703Z,17.50
2017-08-01T00:55:20.459Z,17.40
2017-08-01T00:57:48.042Z,17.40
2017-08-01T01:00:15.645Z,17.30
2017-08-01T01:02:44.133Z,17.00
2017-08-01T01:05:12.521Z,17.00
2017-08-01T01:07:40.156Z,16.90
2017-08-01T01:10:07.772Z,17.00
2017-08-01T01:12:35.473Z,17.00
2017-08-01T01:15:03.109Z,17.00
2017-08-01T01:17:30.720Z,16.80
2017-08-01T01:19:59.084Z,16.80
2017-08-01T01:22:26.760Z,16.80
2017-08-01T01:24:54.387Z,16.80
2017-08-01T01:27:21.977Z,16.70
2017-08-01T01:29:50.479Z,16.70
2017-08-01T01:32:18.136Z,16.70
2017-08-01T01:34:45.758Z,16.70
2017-08-01T01:37:13.358Z,16.70
2017-08-01T01:39:41.070Z,16.70
2017-08-01T01:42:08.676Z,16.70
2017-08-01T01:44:36.319Z,16.60
2017-08-01T01:47:04.095Z,16.50
2017-08-01T01:49:32.482Z,16.40
2017-08-01T01:52:00.126Z,16.40
2017-08-01T01:54:27.789Z,16.40
2017-08-01T01:56:55.411Z,16.40
2017-08-01T01:59:23.008Z,16.30
2017-08-01T02:01:50.654Z,16.30
2017-08-01T02:04:18.250Z,16.40
2017-08-01T02:06:45.959Z,16.30
2017-08-01T02:09:13.669Z,16.40
2017-08-01T02:11:41.391Z,16.40
2017-08-01T02:14:09.132Z,16.40
2017-08-01T02:16:36.796Z,16.30
2017-08-01T02:19:04.442Z,16.40
2017-08-01T02:21:32.048Z,16.40
2017-08-01T02:23:59.662Z,16.40
2017-08-01T02:26:27.261Z,16.50
2017-08-01T02:28:54.977Z,16.40
2017-08-01T02:31:22.584Z,16.50
2017-08-01T02:33:50.173Z,16.50
2017-08-01T02:36:18.951Z,16.50
2017-08-01T02:38:46.591Z,16.50
2017-08-01T02:41:14.213Z,16.60
2017-08-01T02:43:41.845Z,16.60
2017-08-01T02:46:09.530Z,16.60
2017-08-01T02:48:37.105Z,16.60
2017-08-01T02:51:04.680Z,16.70
2017-08-01T02:53:32.571Z,16.80
2017-08-01T02:56:00.160Z,16.80
2017-08-01T02:58:27.755Z,16.80
2017-08-01T03:00:55.542Z,16.80
2017-08-01T03:03:23.191Z,16.70
2017-08-01T03:05:50.798Z,16.80
2017-08-01T03:08:18.446Z,16.70
2017-08-01T03:10:46.107Z,16.70
2017-08-01T03:13:13.703Z,16.70
2017-08-01T03:15:42.082Z,16.80
2017-08-01T03:18:10.450Z,16.80
2017-08-01T03:20:38.135Z,16.80
2017-08-01T03:23:05.877Z,16.80
2017-08-01T03:25:34.273Z,16.90
2017-08-01T03:28:01.987Z,16.80
2017-08-01T03:30:29.610Z,16.90
2017-08-01T03:32:57.202Z,16.90
2017-08-01T03:35:24.929Z,16.90
2017-08-01T03:37:52.603Z,16.90
2017-08-01T03:40:20.198Z,17.00
2017-08-01T03:42:47.792Z,17.00
2017-08-01T03:45:16.580Z,17.00
2017-08-01T03:47:44.993Z,17.00
2017-08-01T03:50:12.594Z,16.90
2017-08-01T03:52:40.201Z,16.90
2017-08-01T03:55:07.913Z,16.80
2017-08-01T03:57:35.500Z,16.80
2017-08-01T04:00:03.882Z,16.60
2017-08-01T04:02:31.524Z,16.60
2017-08-01T04:04:59.114Z,16.60
2017-08-01T04:07:26.765Z,16.50
2017-08-01T04:09:55.366Z,16.40
2017-08-01T04:12:26.905Z,16.40
2017-08-01T04:14:55.564Z,16.30
2017-08-01T04:17:23.243Z,16.30
2017-08-01T04:19:51.068Z,16.30
2017-08-01T04:22:18.730Z,16.30
2017-08-01T04:24:46.387Z,16.40
2017-08-01T04:27:14.072Z,16.40
2017-08-01T04:29:41.801Z,16.30
2017-08-01T04:32:09.403Z,16.40
2017-08-01T04:34:37.187Z,16.40
2017-08-01T04:37:04.806Z,16.40
2017-08-01T04:39:32.395Z,16.50
2017-08-01T04:42:00.104Z,16.50
2017-08-01T04:44:27.712Z,16.60
2017-08-01T04:46:55.317Z,16.70
2017-08-01T04:49:23.282Z,16.80
2017-08-01T04:51:50.903Z,17.00
2017-08-01T04:54:18.497Z,17.10
2017-08-01T04:56:46.896Z,17.30
2017-08-01T04:59:14.552Z,17.30
2017-08-01T05:01:42.139Z,17.40
2017-08-01T05:04:09.758Z,17.40
2017-08-01T05:06:38.124Z,17.40
2017-08-01T05:09:06.615Z,17.50
2017-08-01T05:11:34.325Z,17.50
2017-08-01T05:14:01.911Z,17.70
2017-08-01T05:16:29.522Z,17.90
2017-08-01T05:18:57.127Z,17.90
2017-08-01T05:21:25.530Z,18.20
2017-08-01T05:23:53.151Z,18.20
2017-08-01T05:26:20.753Z,18.20
2017-08-01T05:28:48.336Z,18.30
2017-08-01T05:31:15.970Z,18.40
2017-08-01T05:33:43.600Z,18.30
2017-08-01T05:36:11.199Z,18.40
2017-08-01T05:38:39.407Z,18.50
2017-08-01T05:41:07.876Z,18.60
2017-08-01T05:43:35.623Z,18.50
2017-08-01T05:46:04.055Z,18.70
2017-08-01T05:48:31.657Z,18.60
2017-08-01T05:50:59.386Z,18.60
2017-08-01T05:53:27.793Z,18.80
2017-08-01T05:55:55.912Z,19.00
2017-08-01T05:58:24.051Z,19.20
2017-08-01T06:00:51.697Z,19.30
2017-08-01T06:03:19.483Z,19.40
2017-08-01T06:05:47.924Z,19.90
2017-08-01T06:08:15.616Z,19.90
2017-08-01T06:10:44.010Z,20.30
2017-08-01T06:13:11.956Z,20.30
2017-08-01T06:15:39.623Z,20.10
2017-08-01T06:18:08.021Z,19.90
2017-08-01T06:20:36.609Z,19.80
2017-08-01T06:23:04.193Z,19.80
2017-08-01T06:25:31.877Z,19.70
2017-08-01T06:27:59.474Z,19.70
2017-08-01T06:30:27.834Z,19.60
2017-08-01T06:32:55.543Z,19.60
2017-08-01T06:35:23.178Z,19.70
2017-08-01T06:37:51.661Z,19.90
2017-08-01T06:40:20.193Z,19.80
2017-08-01T06:42:48.018Z,19.80
2017-08-01T06:45:16.380Z,19.90
2017-08-01T06:47:44.011Z,19.90
2017-08-01T06:50:11.598Z,20.00
2017-08-01T06:52:39.191Z,20.00
2017-08-01T06:55:06.846Z,20.10
2017-08-01T06:57:34.533Z,20.30
2017-08-01T07:00:02.157Z,20.70
2017-08-01T07:02:30.533Z,21.40
2017-08-01T07:04:58.936Z,21.60
2017-08-01T07:07:26.558Z,21.60
2017-08-01T07:09:54.350Z,21.90
2017-08-01T07:12:22.694Z,21.90
2017-08-01T07:14:50.265Z,21.80
2017-08-01T07:17:17.945Z,22.00
2017-08-01T07:19:46.298Z,22.10
2017-08-01T07:22:14.318Z,22.10
2017-08-01T07:24:42.491Z,22.20
2017-08-01T07:27:10.558Z,22.30
2017-08-01T07:29:38.196Z,22.00
2017-08-01T07:32:06.619Z,21.80
2017-08-01T07:34:34.226Z,21.80
2017-08-01T07:37:01.809Z,21.70
2017-08-01T07:39:29.615Z,21.80
2017-08-01T07:41:57.237Z,21.70
2017-08-01T07:44:24.839Z,21.50
2017-08-01T07:46:52.525Z,21.30
2017-08-01T07:49:20.127Z,21.30
2017-08-01T07:51:47.755Z,21.20
2017-08-01T07:54:15.438Z,21.10
2017-08-01T07:56:43.804Z,21.50
2017-08-01T07:59:12.161Z,21.50
2017-08-01T08:01:40.348Z,21.50
2017-08-01T08:04:08.928Z,21.40
2017-08-01T08:06:36.670Z,21.30
2017-08-01T08:09:04.338Z,21.00
2017-08-01T08:11:31.947Z,20.90
2017-08-01T08:13:59.598Z,20.90
2017-08-01T08:16:28.028Z,20.80
2017-08-01T08:18:55.609Z,20.80
2017-08-01T08:21:23.212Z,20.90
2017-08-01T08:23:50.871Z,20.90
2017-08-01T08:26:18.458Z,21.00
2017-08-01T08:28:46.082Z,21.10
2017-08-01T08:31:14.661Z,21.30
2017-08-01T08:33:42.271Z,21.30
2017-08-01T08:36:09.879Z,21.40
2017-08-01T08:38:38.260Z,21.30
2017-08-01T08:41:06.669Z,21.30
2017-08-01T08:43:34.249Z,21.30
2017-08-01T08:46:01.939Z,21.30
2017-08-01T08:48:29.724Z,21.20
2017-08-01T08:50:58.083Z,21.40
2017-08-01T08:53:25.703Z,21.40
2017-08-01T08:55:53.906Z,21.50
2017-08-01T08:58:21.565Z,21.60
2017-08-01T09:00:57.322Z,21.90
2017-08-01T09:03:26.555Z,22.40
2017-08-01T09:05:55.056Z,22.60
2017-08-01T09:08:22.679Z,23.10
2017-08-01T09:10:50.436Z,23.00
2017-08-01T09:13:28.090Z,23.00
2017-08-01T09:15:58.854Z,22.90
2017-08-01T09:18:26.724Z,22.80
2017-08-01T09:20:54.346Z,22.90
2017-08-01T09:23:22.335Z,23.00
2017-08-01T09:25:50.542Z,23.00
2017-08-01T09:28:18.964Z,23.40
2017-08-01T09:30:46.661Z,23.30
2017-08-01T09:33:15.139Z,23.00
2017-08-01T09:35:43.111Z,23.40
2017-08-01T09:38:11.080Z,23.00
2017-08-01T09:40:38.656Z,22.70
2017-08-01T09:43:06.279Z,22.60
2017-08-01T09:45:33.963Z,22.40
2017-08-01T09:48:01.556Z,22.20
2017-08-01T09:50:29.163Z,22.50
2017-08-01T09:52:57.115Z,23.30
2017-08-01T09:55:25.563Z,24.30
2017-08-01T09:57:59.721Z,24.30
2017-08-01T10:00:27.387Z,25.40
2017-08-01T10:02:55.075Z,25.90
2017-08-01T10:05:22.849Z,27.00
2017-08-01T10:07:50.669Z,27.60
2017-08-01T10:10:18.282Z,27.40
2017-08-01T10:12:45.925Z,26.90
2017-08-01T10:15:14.478Z,26.60
2017-08-01T10:17:42.199Z,26.00
2017-08-01T10:20:09.940Z,25.40
2017-08-01T10:22:37.835Z,24.80
2017-08-01T10:25:06.622Z,24.50
2017-08-01T10:27:35.178Z,24.70
2017-08-01T10:30:02.887Z,24.70
2017-08-01T10:32:31.525Z,24.60
2017-08-01T10:34:59.628Z,24.50
2017-08-01T10:37:27.436Z,24.50
2017-08-01T10:39:55.199Z,24.10
2017-08-01T10:42:22.821Z,24.40
2017-08-01T10:44:50.418Z,24.20
2017-08-01T10:47:18.181Z,24.10
2017-08-01T10:49:46.091Z,24.00
2017-08-01T10:52:13.666Z,24.10
2017-08-01T10:54:41.405Z,24.40
2017-08-01T10:57:09.312Z,25.00
2017-08-01T10:59:36.889Z,25.10
2017-08-01T11:02:05.236Z,25.20
2017-08-01T11:04:32.898Z,25.20
2017-08-01T11:07:00.611Z,25.40
2017-08-01T11:09:28.666Z,26.00
2017-08-01T11:11:56.455Z,26.10
2017-08-01T11:14:24.318Z,25.70
2017-08-01T11:16:52.044Z,25.30
2017-08-01T11:19:19.649Z,25.40
2017-08-01T11:21:47.276Z,25.60
2017-08-01T11:24:16.272Z,25.60
2017-08-01T11:26:44.703Z,25.50
2017-08-01T11:29:12.444Z,25.50
2017-08-01T11:31:40.438Z,25.30
2017-08-01T11:34:08.292Z,25.10
2017-08-01T11:36:40.704Z,24.70
2017-08-01T11:39:08.425Z,24.70
2017-08-01T11:41:36.325Z,24.40
2017-08-01T11:44:04.715Z,24.50
2017-08-01T11:46:32.335Z,24.50
2017-08-01T11:49:00.109Z,24.30
2017-08-01T11:51:27.692Z,24.60
2017-08-01T11:53:55.378Z,24.70
2017-08-01T11:56:23.152Z,24.60
2017-08-01T11:58:50.725Z,24.40
2017-08-01T12:01:18.372Z,24.20
2017-08-01T12:03:46.016Z,24.00
2017-08-01T12:06:13.603Z,24.10
2017-08-01T12:08:41.979Z,24.10
2017-08-01T12:11:09.680Z,24.10
2017-08-01T12:13:37.303Z,23.80
2017-08-01T12:16:05.705Z,23.40
2017-08-01T12:18:33.312Z,23.40
2017-08-01T12:21:01.015Z,23.20
2017-08-01T12:23:29.523Z,23.00
2017-08-01T12:25:57.105Z,23.00
2017-08-01T12:28:24.693Z,23.00
2017-08-01T12:30:52.478Z,23.20
2017-08-01T12:33:24.353Z,23.40
2017-08-01T12:35:52.058Z,23.30
2017-08-01T12:38:19.643Z,23.40
2017-08-01T12:40:47.298Z,23.60
2017-08-01T12:43:15.008Z,23.80
2017-08-01T12:45:42.615Z,23.90
2017-08-01T12:48:10.189Z,24.10
2017-08-01T12:50:38.600Z,24.70
2017-08-01T12:53:06.339Z,24.80
2017-08-01T12:55:33.938Z,24.90
2017-08-01T12:58:01.575Z,25.30
2017-08-01T13:00:30.046Z,26.40
2017-08-01T13:02:58.400Z,26.30
2017-08-01T13:05:26.013Z,26.20
2017-08-01T13:07:53.600Z,26.60
2017-08-01T13:10:21.283Z,26.20
2017-08-01T13:12:48.951Z,25.90
2017-08-01T13:15:16.550Z,25.50
2017-08-01T13:17:44.279Z,24.90
2017-08-01T13:20:11.880Z,24.30
2017-08-01T13:22:39.531Z,24.30
2017-08-01T13:25:07.895Z,24.40
2017-08-01T13:27:36.391Z,24.40
2017-08-01T13:30:04.925Z,24.20
2017-08-01T13:32:32.496Z,24.20
2017-08-01T13:35:00.116Z,24.30
2017-08-01T13:37:28.923Z,24.10
2017-08-01T13:39:56.511Z,24.10
2017-08-01T13:42:24.138Z,24.20
2017-08-01T13:44:51.846Z,24.30
2017-08-01T13:47:19.454Z,24.50
2017-08-01T13:49:47.073Z,24.70
2017-08-01T13:52:15.420Z,24.80
2017-08-01T13:54:43.170Z,24.80
2017-08-01T13:57:10.821Z,25.40
2017-08-01T13:59:38.397Z,25.70
2017-08-01T14:02:06.035Z,26.00
2017-08-01T14:04:33.717Z,26.40
2017-08-01T14:07:01.327Z,26.20
2017-08-01T14:09:29.676Z,25.50
2017-08-01T14:11:57.341Z,25.40
2017-08-01T14:14:24.941Z,24.80
2017-08-01T14:16:53.329Z,24.10
2017-08-01T14:19:20.955Z,24.10
2017-08-01T14:21:48.657Z,24.20
2017-08-01T14:24:16.277Z,24.00
2017-08-01T14:26:43.910Z,24.00
2017-08-01T14:29:11.565Z,23.90
2017-08-01T14:31:39.154Z,24.20
2017-08-01T14:34:07.567Z,23.80
2017-08-01T14:36:35.905Z,23.70
2017-08-01T14:39:03.674Z,23.70
2017-08-01T14:41:31.326Z,23.60
2017-08-01T14:43:59.116Z,23.40
2017-08-01T14:46:26.772Z,23.10
2017-08-01T14:48:54.455Z,23.30
2017-08-01T14:51:22.821Z,22.90
2017-08-01T14:53:51.286Z,22.60
2017-08-01T14:56:19.078Z,22.60
2017-08-01T14:58:47.968Z,22.20
2017-08-01T15:01:15.712Z,22.20
2017-08-01T15:03:43.363Z,22.10
2017-08-01T15:06:11.178Z,21.90
2017-08-01T15:08:38.768Z,21.70
2017-08-01T15:11:06.435Z,21.60
2017-08-01T15:13:34.062Z,21.40
2017-08-01T15:16:02.727Z,21.00
2017-08-01T15:18:31.138Z,20.90
2017-08-01T15:20:59.706Z,20.90
2017-08-01T15:23:29.172Z,20.70
2017-08-01T15:25:57.167Z,20.70
2017-08-01T15:28:26.030Z,20.50
2017-08-01T15:30:54.475Z,20.40
2017-08-01T15:33:22.139Z,20.30
2017-08-01T15:35:49.748Z,20.50
2017-08-01T15:38:18.603Z,20.50
2017-08-01T15:40:46.788Z,20.40
2017-08-01T15:43:14.582Z,20.40
2017-08-01T15:45:42.288Z,20.30
2017-08-01T15:48:09.988Z,20.20
2017-08-01T15:50:37.642Z,19.90
2017-08-01T15:53:05.220Z,19.90
2017-08-01T15:55:32.864Z,19.80
2017-08-01T15:58:00.489Z,19.70
2017-08-01T16:00:28.124Z,19.80
2017-08-01T16:02:55.747Z,19.80
2017-08-01T16:05:23.378Z,19.70
2017-08-01T16:07:51.032Z,19.80
2017-08-01T16:10:18.655Z,19.80
2017-08-01T16:12:46.292Z,19.80
2017-08-01T16:15:13.952Z,19.80
2017-08-01T16:17:41.565Z,19.90
2017-08-01T16:20:10.199Z,19.90
2017-08-01T16:22:37.872Z,19.90
2017-08-01T16:25:05.492Z,19.80
2017-08-01T16:27:33.081Z,19.70
2017-08-01T16:30:01.316Z,19.80
2017-08-01T16:32:29.813Z,19.70
2017-08-01T16:34:57.838Z,19.80
2017-08-01T16:37:26.241Z,19.90
2017-08-01T16:39:54.817Z,19.70
2017-08-01T16:42:23.173Z,19.70
2017-08-01T16:44:50.767Z,19.70
2017-08-01T16:47:18.471Z,19.90
2017-08-01T16:49:46.075Z,19.80
2017-08-01T16:52:13.857Z,19.80
2017-08-01T16:54:42.270Z,20.00
2017-08-01T16:57:09.949Z,20.00
2017-08-01T16:59:37.598Z,20.00
2017-08-01T17:02:05.240Z,19.80
2017-08-01T17:04:32.865Z,19.70
2017-08-01T17:07:01.305Z,19.70
2017-08-01T17:09:29.260Z,19.70
2017-08-01T17:11:56.887Z,19.70
2017-08-01T17:14:24.647Z,19.80
2017-08-01T17:16:52.471Z,20.00
2017-08-01T17:19:20.121Z,20.10
2017-08-01T17:21:47.937Z,20.10
2017-08-01T17:24:15.641Z,20.10
2017-08-01T17:26:43.329Z,19.80
2017-08-01T17:29:10.915Z,19.70
2017-08-01T17:31:42.815Z,19.70
2017-08-01T17:34:10.726Z,19.80
2017-08-01T17:36:38.373Z,19.80
2017-08-01T17:39:06.084Z,19.80
2017-08-01T17:41:34.570Z,19.90
2017-08-01T17:44:02.940Z,19.90
2017-08-01T17:46:30.656Z,19.80
2017-08-01T17:48:58.290Z,19.80
2017-08-01T17:51:25.983Z,19.80
2017-08-01T17:53:53.597Z,19.80
2017-08-01T17:56:21.336Z,19.80
2017-08-01T17:58:48.997Z,19.90
2017-08-01T18:01:16.685Z,19.90
2017-08-01T18:03:45.039Z,19.70
2017-08-01T18:06:12.738Z,19.70
2017-08-01T18:08:40.641Z,19.50
2017-08-01T18:11:08.379Z,19.30
2017-08-01T18:13:35.985Z,19.20
2017-08-01T18:16:03.880Z,19.10
2017-08-01T18:18:32.233Z,19.20
2017-08-01T18:20:59.880Z,19.20
2017-08-01T18:23:27.646Z,19.20
2017-08-01T18:25:55.229Z,19.20
2017-08-01T18:28:22.854Z,19.30
2017-08-01T18:30:50.780Z,19.20
2017-08-01T18:33:18.778Z,19.10
2017-08-01T18:35:46.432Z,19.10
2017-08-01T18:38:14.198Z,19.00
2017-08-01T18:40:41.897Z,18.90
2017-08-01T18:43:09.674Z,19.00
2017-08-01T18:45:38.401Z,19.00
2017-08-01T18:48:06.815Z,18.80
2017-08-01T18:50:34.695Z,18.80
2017-08-01T18:53:02.665Z,18.90
2017-08-01T18:55:31.384Z,18.80
2017-08-01T18:58:01.127Z,18.80
2017-08-01T19:00:28.747Z,18.80
2017-08-01T19:02:56.609Z,18.70
2017-08-01T19:05:24.629Z,18.60
2017-08-01T19:07:52.255Z,18.60
2017-08-01T19:10:19.986Z,18.50
2017-08-01T19:12:47.685Z,18.40
2017-08-01T19:15:15.500Z,18.30
2017-08-01T19:17:43.129Z,18.40
2017-08-01T19:20:13.965Z,18.30
2017-08-01T19:22:42.897Z,18.30
2017-08-01T19:25:22.614Z,18.20
2017-08-01T19:27:50.458Z,18.10
2017-08-01T19:30:19.339Z,18.10
2017-08-01T19:32:47.812Z,18.10
2017-08-01T19:35:15.454Z,18.00
2017-08-01T19:37:43.155Z,18.00
2017-08-01T19:40:11.962Z,18.10
2017-08-01T19:42:39.858Z,18.00
2017-08-01T19:45:07.481Z,17.80
2017-08-01T19:47:35.836Z,17.70
2017-08-01T19:50:03.881Z,17.70
2017-08-01T19:52:31.636Z,17.60
2017-08-01T19:54:59.324Z,17.40
2017-08-01T19:57:26.972Z,17.20
2017-08-01T19:59:54.727Z,17.20
2017-08-01T20:02:22.401Z,17.10
2017-08-01T20:04:50.176Z,17.00
2017-08-01T20:07:18.784Z,17.00
2017-08-01T20:09:46.609Z,16.90
2017-08-01T20:12:14.345Z,16.90
2017-08-01T20:14:42.436Z,16.80
2017-08-01T20:17:12.229Z,16.80
2017-08-01T20:19:41.089Z,16.80
2017-08-01T20:22:08.757Z,16.80
2017-08-01T20:24:36.403Z,16.70
2017-08-01T20:27:06.120Z,16.70
2017-08-01T20:29:33.769Z,16.70
2017-08-01T20:32:01.590Z,16.60
2017-08-01T20:34:30.388Z,16.50
2017-08-01T20:36:58.011Z,16.50
2017-08-01T20:39:25.803Z,16.50
2017-08-01T20:41:53.788Z,16.60
2017-08-01T20:44:21.437Z,16.70
2017-08-01T20:46:49.142Z,16.70
2017-08-01T20:49:16.772Z,16.70
2017-08-01T20:51:44.412Z,16.50
2017-08-01T20:54:12.039Z,16.40
2017-08-01T20:56:39.676Z,16.40
2017-08-01T20:59:07.299Z,16.30
2017-08-01T21:01:34.892Z,16.30
2017-08-01T21:04:02.504Z,16.30
2017-08-01T21:06:30.138Z,16.30
2017-08-01T21:08:57.768Z,16.20
2017-08-01T21:11:25.516Z,16.20
2017-08-01T21:13:53.152Z,16.10
2017-08-01T21:16:20.765Z,16.10
2017-08-01T21:18:48.387Z,16.00
2017-08-01T21:21:16.039Z,16.00
2017-08-01T21:23:43.715Z,16.00
2017-08-01T21:26:11.338Z,16.00
2017-08-01T21:28:40.015Z,16.10
2017-08-01T21:31:07.681Z,16.20
2017-08-01T21:33:35.517Z,16.20
2017-08-01T21:36:03.925Z,16.00
2017-08-01T21:38:31.512Z,16.00
2017-08-01T21:40:59.236Z,15.90
2017-08-01T21:43:26.823Z,15.90
2017-08-01T21:45:54.427Z,15.80
2017-08-01T21:48:22.124Z,15.80
2017-08-01T21:50:49.826Z,15.80
2017-08-01T21:53:17.443Z,15.80
2017-08-01T21:55:46.220Z,15.90
2017-08-01T21:58:13.884Z,15.80
2017-08-01T22:00:41.489Z,15.80
2017-08-01T22:03:09.947Z,15.70
2017-08-01T22:05:37.567Z,15.70
2017-08-01T22:08:05.334Z,15.80
2017-08-01T22:10:33.837Z,15.70
2017-08-01T22:13:03.444Z,15.70
2017-08-01T22:15:32.003Z,15.70
2017-08-01T22:17:59.628Z,15.70
2017-08-01T22:20:27.367Z,15.60
2017-08-01T22:22:54.958Z,15.50
2017-08-01T22:25:22.589Z,15.60
2017-08-01T22:27:50.337Z,15.70
2017-08-01T22:30:17.985Z,15.60
2017-08-01T22:32:45.662Z,15.60
2017-08-01T22:35:13.311Z,15.40
2017-08-01T22:37:40.958Z,15.30
2017-08-01T22:40:08.574Z,15.30
2017-08-01T22:42:36.944Z,15.20
2017-08-01T22:45:04.590Z,15.20
2017-08-01T22:47:32.315Z,15.20
2017-08-01T22:49:59.935Z,15.40
2017-08-01T22:52:28.296Z,15.50
2017-08-01T22:54:55.970Z,15.50
2017-08-01T22:57:23.580Z,15.50
2017-08-01T22:59:51.216Z,15.50
2017-08-01T23:02:19.727Z,15.40
2017-08-01T23:04:47.376Z,15.40
2017-08-01T23:07:15.004Z,15.20
2017-08-01T23:09:43.392Z,15.00
2017-08-01T23:12:11.083Z,15.00
2017-08-01T23:14:38.675Z,15.00
2017-08-01T23:17:06.306Z,15.00
2017-08-01T23:19:33.979Z,15.00
2017-08-01T23:22:04.189Z,15.00
2017-08-01T23:24:32.591Z,15.00
2017-08-01T23:27:00.215Z,15.00
2017-08-01T23:29:27.811Z,15.00
2017-08-01T23:31:55.479Z,15.10
2017-08-01T23:34:23.098Z,15.10
2017-08-01T23:36:50.738Z,15.00
2017-08-01T23:39:19.191Z,15.00
2017-08-01T23:41:47.910Z,15.00
2017-08-01T23:44:16.191Z,15.00
2017-08-01T23:46:44.575Z,15.00
2017-08-01T23:49:12.843Z,15.10
2017-08-01T23:51:40.516Z,15.00
2017-08-01T23:54:08.900Z,15.00
2017-08-01T23:56:37.147Z,15.00
2017-08-01T23:59:04.796Z,15.10
